createdAt,value
2022-12-08T00:01:35.505Z,3.47
2022-12-08T00:04:05.074Z,3.38
2022-12-08T00:06:53.837Z,3.40
2022-12-08T00:09:24.058Z,3.41
2022-12-08T00:11:54.678Z,3.40
2022-12-08T00:14:25.919Z,3.42
2022-12-08T00:16:54.340Z,3.39
2022-12-08T00:19:22.767Z,3.40
2022-12-08T00:21:52.665Z,3.42
2022-12-08T00:24:21.912Z,3.35
2022-12-08T00:26:50.486Z,3.37
2022-12-08T00:29:18.808Z,3.34
2022-12-08T00:31:46.747Z,3.34
2022-12-08T00:34:15.565Z,3.38
2022-12-08T00:36:43.930Z,3.39
2022-12-08T00:39:15.317Z,3.41
2022-12-08T00:42:00.669Z,3.45
2022-12-08T00:44:28.938Z,3.35
2022-12-08T00:46:56.964Z,3.37
2022-12-08T00:49:25.399Z,3.34
2022-12-08T00:51:53.461Z,3.39
2022-12-08T00:54:23.962Z,3.43
2022-12-08T00:56:52.412Z,3.31
2022-12-08T00:59:20.262Z,3.41
2022-12-08T01:01:49.103Z,3.36
2022-12-08T01:04:18.733Z,3.36
2022-12-08T01:06:47.441Z,3.25
2022-12-08T01:09:16.907Z,3.34
2022-12-08T01:11:46.783Z,3.31
2022-12-08T01:14:15.431Z,3.29
2022-12-08T01:16:44.224Z,3.28
2022-12-08T01:19:13.324Z,3.32
2022-12-08T01:21:41.975Z,3.28
2022-12-08T01:24:12.811Z,3.25
2022-12-08T01:26:40.920Z,3.29
2022-12-08T01:29:10.858Z,3.22
2022-12-08T01:31:39.158Z,3.13
2022-12-08T01:34:08.039Z,3.08
2022-12-08T01:36:38.260Z,2.98
2022-12-08T01:39:08.887Z,2.95
2022-12-08T01:41:39.321Z,2.91
2022-12-08T01:44:40.576Z,2.92
2022-12-08T01:47:10.474Z,2.90
2022-12-08T01:49:38.739Z,2.90
2022-12-08T01:52:12.285Z,2.87
2022-12-08T01:54:44.276Z,2.87
2022-12-08T01:57:15.661Z,2.87
2022-12-08T01:59:47.955Z,2.84
2022-12-08T02:02:17.434Z,2.84
2022-12-08T02:04:45.441Z,2.80
2022-12-08T02:07:15.658Z,2.77
2022-12-08T02:09:43.947Z,2.74
2022-12-08T02:12:12.856Z,2.72
2022-12-08T02:14:41.028Z,2.71
2022-12-08T02:17:26.341Z,2.69
2022-12-08T02:20:21.626Z,2.67
2022-12-08T02:22:55.744Z,2.75
2022-12-08T02:25:33.377Z,2.75
2022-12-08T02:28:09.481Z,2.75
2022-12-08T02:30:48.571Z,2.78
2022-12-08T02:34:01.746Z,2.78
2022-12-08T02:36:40.954Z,2.77
2022-12-08T02:39:19.397Z,2.78
2022-12-08T02:41:54.844Z,2.64
2022-12-08T02:44:29.021Z,2.71
2022-12-08T02:47:00.574Z,2.71
2022-12-08T02:49:34.460Z,2.72
2022-12-08T02:52:07.483Z,2.76
2022-12-08T02:54:37.201Z,2.79
2022-12-08T02:57:22.699Z,2.78
2022-12-08T03:00:06.061Z,2.86
2022-12-08T03:02:45.502Z,2.86
2022-12-08T03:05:34.689Z,2.90
2022-12-08T03:08:09.914Z,2.94
2022-12-08T03:10:44.001Z,2.94
2022-12-08T03:13:16.648Z,2.93
2022-12-08T03:15:47.922Z,2.95
2022-12-08T03:18:17.760Z,2.95
2022-12-08T03:20:48.997Z,2.92
2022-12-08T03:23:19.768Z,2.99
2022-12-08T03:25:54.604Z,2.99
2022-12-08T03:28:22.582Z,3.04
2022-12-08T03:30:56.701Z,3.03
2022-12-08T03:33:28.854Z,3.08
2022-12-08T03:36:00.620Z,2.99
2022-12-08T03:38:38.872Z,3.04
2022-12-08T03:41:22.142Z,3.02
2022-12-08T03:43:51.735Z,2.94
2022-12-08T03:48:48.793Z,2.96
2022-12-08T03:51:18.582Z,2.86
2022-12-08T03:53:47.365Z,2.94
2022-12-08T03:56:20.560Z,2.94
2022-12-08T03:58:48.523Z,2.95
2022-12-08T04:01:16.394Z,2.93
2022-12-08T04:03:44.367Z,2.91
2022-12-08T04:06:12.396Z,2.99
2022-12-08T04:08:42.030Z,2.96
2022-12-08T04:11:10.687Z,2.99
2022-12-08T04:13:40.324Z,3.00
2022-12-08T04:16:09.605Z,2.99
2022-12-08T04:18:37.589Z,3.02
2022-12-08T04:21:05.969Z,3.02
2022-12-08T04:23:33.852Z,3.00
2022-12-08T04:26:03.136Z,3.01
2022-12-08T04:28:31.103Z,2.97
2022-12-08T04:30:59.176Z,2.94
2022-12-08T04:33:27.382Z,2.97
2022-12-08T04:35:55.301Z,2.96
2022-12-08T04:38:23.349Z,2.96
2022-12-08T04:40:51.235Z,3.03
2022-12-08T04:43:20.495Z,3.03
2022-12-08T04:45:48.508Z,3.03
2022-12-08T04:48:16.404Z,3.08
2022-12-08T04:50:46.185Z,3.11
2022-12-08T04:53:14.780Z,3.12
2022-12-08T04:55:44.775Z,3.13
2022-12-08T04:58:14.713Z,3.00
2022-12-08T05:00:44.854Z,3.06
2022-12-08T05:03:13.364Z,2.99
2022-12-08T05:05:42.181Z,3.04
2022-12-08T05:08:11.339Z,2.94
2022-12-08T05:10:39.572Z,2.99
2022-12-08T05:13:07.547Z,2.92
2022-12-08T05:15:35.587Z,2.93
2022-12-08T05:18:06.152Z,2.94
2022-12-08T05:20:34.068Z,2.98
2022-12-08T05:23:01.978Z,2.98
2022-12-08T05:25:29.924Z,2.97
2022-12-08T05:28:17.496Z,3.01
2022-12-08T05:30:45.809Z,2.96
2022-12-08T05:33:15.299Z,2.93
2022-12-08T05:35:43.278Z,2.95
2022-12-08T05:38:11.409Z,2.94
2022-12-08T05:40:39.974Z,2.93
2022-12-08T05:43:08.192Z,2.95
2022-12-08T05:45:36.147Z,2.89
2022-12-08T05:48:04.394Z,2.97
2022-12-08T05:50:33.728Z,2.98
2022-12-08T05:53:05.479Z,3.00
2022-12-08T05:55:33.499Z,2.97
2022-12-08T05:58:07.487Z,3.03
2022-12-08T06:00:36.060Z,3.04
2022-12-08T06:03:04.185Z,3.06
2022-12-08T06:05:35.287Z,3.09
2022-12-08T06:08:03.658Z,3.13
2022-12-08T06:10:31.593Z,3.10
2022-12-08T06:12:59.574Z,3.06
2022-12-08T06:15:27.619Z,3.05
2022-12-08T06:17:55.504Z,3.07
2022-12-08T06:20:35.488Z,3.09
2022-12-08T06:23:03.493Z,3.09
2022-12-08T06:25:31.666Z,3.05
2022-12-08T06:27:59.521Z,3.07
2022-12-08T06:30:28.544Z,3.02
2022-12-08T06:32:56.626Z,3.08
2022-12-08T06:35:24.505Z,3.02
2022-12-08T06:37:53.717Z,3.01
2022-12-08T06:40:21.622Z,3.00
2022-12-08T06:42:49.540Z,3.02
2022-12-08T06:45:19.244Z,2.97
2022-12-08T06:47:47.140Z,2.90
2022-12-08T06:50:15.494Z,2.94
2022-12-08T06:52:54.320Z,2.88
2022-12-08T06:58:18.433Z,2.91
2022-12-08T07:00:46.625Z,2.91
2022-12-08T07:03:14.813Z,3.16
2022-12-08T07:05:42.759Z,3.08
2022-12-08T07:08:10.991Z,3.01
2022-12-08T07:10:40.345Z,2.94
2022-12-08T07:13:08.225Z,2.80
2022-12-08T07:15:36.590Z,2.70
2022-12-08T07:18:04.624Z,2.67
2022-12-08T07:20:32.703Z,2.71
2022-12-08T07:23:00.845Z,2.65
2022-12-08T07:25:29.095Z,2.62
2022-12-08T07:27:58.537Z,2.63
2022-12-08T07:30:26.586Z,2.60
2022-12-08T07:32:54.646Z,2.51
2022-12-08T07:35:23.163Z,2.53
2022-12-08T07:37:51.150Z,2.49
2022-12-08T07:40:19.265Z,2.52
2022-12-08T07:42:47.206Z,2.56
2022-12-08T07:45:16.734Z,2.61
2022-12-08T07:47:44.633Z,2.53
2022-12-08T07:50:12.586Z,2.54
2022-12-08T07:52:40.655Z,2.57
2022-12-08T07:55:09.500Z,2.60
2022-12-08T07:57:37.472Z,2.69
2022-12-08T08:00:07.107Z,2.65
2022-12-08T08:02:41.088Z,2.65
2022-12-08T08:05:10.340Z,2.78
2022-12-08T08:07:38.645Z,2.74
2022-12-08T08:10:08.084Z,2.76
2022-12-08T08:12:36.838Z,2.76
2022-12-08T08:15:07.340Z,2.75
2022-12-08T08:17:36.491Z,2.80
2022-12-08T08:20:07.731Z,2.84
2022-12-08T08:22:36.711Z,2.78
2022-12-08T08:25:05.623Z,2.91
2022-12-08T08:27:34.258Z,2.95
2022-12-08T08:30:03.048Z,2.88
2022-12-08T08:32:34.225Z,2.88
2022-12-08T08:35:02.284Z,2.84
2022-12-08T08:37:32.355Z,2.91
2022-12-08T08:40:00.356Z,2.94
2022-12-08T08:42:28.586Z,2.99
2022-12-08T08:44:56.614Z,2.91
2022-12-08T08:47:24.596Z,2.95
2022-12-08T08:49:52.706Z,3.02
2022-12-08T08:52:20.654Z,3.05
2022-12-08T08:54:49.907Z,2.94
2022-12-08T08:57:23.651Z,3.09
2022-12-08T08:59:53.558Z,3.11
2022-12-08T09:02:22.183Z,3.09
2022-12-08T09:04:50.448Z,2.94
2022-12-08T09:07:18.446Z,3.15
2022-12-08T09:09:46.448Z,3.15
2022-12-08T09:12:16.362Z,3.21
2022-12-08T09:14:44.356Z,3.27
2022-12-08T09:17:12.478Z,3.20
2022-12-08T09:19:40.461Z,3.22
2022-12-08T09:22:08.398Z,3.27
2022-12-08T09:24:36.341Z,3.24
2022-12-08T09:27:04.452Z,3.26
2022-12-08T09:29:36.164Z,3.36
2022-12-08T09:32:04.809Z,3.44
2022-12-08T09:34:32.810Z,3.30
2022-12-08T09:37:00.829Z,3.23
2022-12-08T09:39:31.680Z,3.37
2022-12-08T09:42:02.013Z,3.40
2022-12-08T09:44:55.167Z,3.43
2022-12-08T09:47:25.293Z,3.47
2022-12-08T09:50:00.738Z,3.37
2022-12-08T09:52:33.559Z,3.34
2022-12-08T09:55:05.549Z,3.34
2022-12-08T09:57:33.632Z,3.41
2022-12-08T10:00:07.389Z,3.40
2022-12-08T10:02:35.703Z,3.51
2022-12-08T10:05:03.666Z,3.51
2022-12-08T10:07:40.006Z,3.50
2022-12-08T10:10:17.670Z,3.57
2022-12-08T10:12:52.850Z,3.65
2022-12-08T10:15:47.975Z,3.52
2022-12-08T10:18:18.839Z,3.59
2022-12-08T10:20:48.984Z,3.46
2022-12-08T10:23:26.118Z,3.45
2022-12-08T10:25:59.811Z,3.45
2022-12-08T10:28:27.768Z,3.43
2022-12-08T10:30:57.221Z,3.38
2022-12-08T10:33:25.409Z,3.42
2022-12-08T10:35:56.317Z,3.41
2022-12-08T10:38:28.143Z,3.40
2022-12-08T10:41:04.378Z,3.60
2022-12-08T10:43:34.262Z,3.61
2022-12-08T10:46:15.783Z,3.60
2022-12-08T10:48:53.672Z,3.71
2022-12-08T10:51:29.019Z,3.72
2022-12-08T10:53:57.819Z,3.72
2022-12-08T10:56:28.501Z,3.66
2022-12-08T10:59:15.708Z,3.69
2022-12-08T11:01:48.542Z,3.87
2022-12-08T11:04:19.750Z,3.73
2022-12-08T11:06:50.050Z,3.76
2022-12-08T11:09:32.628Z,3.71
2022-12-08T11:12:01.634Z,3.80
2022-12-08T11:14:31.832Z,3.87
2022-12-08T11:17:08.146Z,3.80
2022-12-08T11:19:39.470Z,3.89
2022-12-08T11:22:22.338Z,3.97
2022-12-08T11:24:59.406Z,4.00
2022-12-08T11:27:27.751Z,3.98
2022-12-08T11:29:55.936Z,3.85
2022-12-08T11:32:25.486Z,3.80
2022-12-08T11:35:00.047Z,3.85
2022-12-08T11:37:35.125Z,3.80
2022-12-08T11:40:08.661Z,3.99
2022-12-08T11:42:45.690Z,3.83
2022-12-08T11:45:20.825Z,3.83
2022-12-08T11:47:58.618Z,3.97
2022-12-08T11:50:30.703Z,4.03
2022-12-08T11:53:00.904Z,4.02
2022-12-08T11:55:37.179Z,4.01
2022-12-08T11:58:16.721Z,4.05
2022-12-08T12:00:44.775Z,4.16
2022-12-08T12:03:25.230Z,3.96
2022-12-08T12:06:37.583Z,3.88
2022-12-08T12:09:10.508Z,3.84
2022-12-08T12:12:07.612Z,3.94
2022-12-08T12:14:57.855Z,4.04
2022-12-08T12:17:40.633Z,4.01
2022-12-08T12:20:20.424Z,3.95
2022-12-08T12:22:53.995Z,3.85
2022-12-08T12:25:24.999Z,3.87
2022-12-08T12:27:57.804Z,3.90
2022-12-08T12:30:27.622Z,3.88
2022-12-08T12:32:58.221Z,3.87
2022-12-08T12:35:34.520Z,3.78
2022-12-08T12:38:26.533Z,3.81
2022-12-08T12:40:59.341Z,3.78
2022-12-08T12:43:31.643Z,3.81
2022-12-08T12:46:39.957Z,3.76
2022-12-08T12:49:46.084Z,3.71
2022-12-08T12:52:49.361Z,3.72
2022-12-08T12:55:46.446Z,3.68
2022-12-08T12:58:38.773Z,3.65
2022-12-08T13:01:38.209Z,3.69
2022-12-08T13:04:09.343Z,3.67
2022-12-08T13:06:42.179Z,3.60
2022-12-08T13:09:23.754Z,3.66
2022-12-08T13:11:55.698Z,3.56
2022-12-08T13:14:38.502Z,3.60
2022-12-08T13:17:13.285Z,3.67
2022-12-08T13:19:45.367Z,3.65
2022-12-08T13:22:50.931Z,3.65
2022-12-08T13:25:58.684Z,3.73
2022-12-08T13:28:29.919Z,3.69
2022-12-08T13:30:59.620Z,3.67
2022-12-08T13:33:31.355Z,3.74
2022-12-08T13:36:11.647Z,3.74
2022-12-08T13:38:41.065Z,3.69
2022-12-08T13:41:18.603Z,3.74
2022-12-08T13:44:31.110Z,3.71
2022-12-08T13:56:51.500Z,3.68
2022-12-08T13:58:21.000Z,3.67
2022-12-08T14:01:02.796Z,3.72
2022-12-08T14:03:31.368Z,3.54
2022-12-08T14:06:15.593Z,3.52
2022-12-08T14:09:10.438Z,3.40
2022-12-08T14:11:38.366Z,3.34
2022-12-08T14:14:09.231Z,3.40
2022-12-08T14:16:41.456Z,3.37
2022-12-08T14:19:18.491Z,3.28
2022-12-08T14:21:55.541Z,3.27
2022-12-08T14:24:24.391Z,3.20
2022-12-08T14:26:55.264Z,3.24
2022-12-08T14:29:37.806Z,3.21
2022-12-08T14:32:19.821Z,3.25
2022-12-08T14:34:53.734Z,3.31
2022-12-08T14:37:22.941Z,3.34
2022-12-08T14:39:52.183Z,3.30
2022-12-08T14:42:24.498Z,3.21
2022-12-08T14:45:04.968Z,3.18
2022-12-08T14:47:35.716Z,3.12
2022-12-08T14:50:26.392Z,3.09
2022-12-08T14:52:54.633Z,3.05
2022-12-08T14:55:22.683Z,3.09
2022-12-08T14:57:50.728Z,3.09
2022-12-08T15:00:23.179Z,3.03
2022-12-08T15:02:56.985Z,3.10
2022-12-08T15:05:33.132Z,3.09
2022-12-08T15:08:04.637Z,3.08
2022-12-08T15:10:37.898Z,3.07
2022-12-08T15:13:21.040Z,3.09
2022-12-08T15:15:51.751Z,3.08
2022-12-08T15:18:29.663Z,3.05
2022-12-08T15:21:03.302Z,3.02
2022-12-08T15:24:38.414Z,3.03
2022-12-08T15:27:06.353Z,2.98
2022-12-08T15:29:34.305Z,2.96
2022-12-08T15:32:02.754Z,2.91
2022-12-08T15:34:32.506Z,2.83
2022-12-08T15:37:00.492Z,2.77
2022-12-08T15:39:33.975Z,2.76
2022-12-08T15:42:03.051Z,2.74
2022-12-08T15:44:32.733Z,2.67
2022-12-08T15:47:01.437Z,2.62
2022-12-08T15:49:29.616Z,2.63
2022-12-08T15:52:10.631Z,2.61
2022-12-08T15:54:40.225Z,2.61
2022-12-08T15:57:25.067Z,2.65
2022-12-08T16:00:05.424Z,2.66
2022-12-08T16:02:49.487Z,2.65
2022-12-08T16:08:44.573Z,2.58
2022-12-08T16:12:03.829Z,2.47
2022-12-08T16:14:47.098Z,2.60
2022-12-08T16:16:51.534Z,2.56
2022-12-08T16:19:19.530Z,2.57
2022-12-08T16:24:37.375Z,2.44
2022-12-08T16:29:53.434Z,2.25
2022-12-08T16:32:21.684Z,2.22
2022-12-08T16:34:51.039Z,2.08
2022-12-08T16:37:21.007Z,1.87
2022-12-08T16:39:51.915Z,1.73
2022-12-08T16:42:41.716Z,1.80
2022-12-08T16:45:12.638Z,1.76
2022-12-08T16:47:42.497Z,1.73
2022-12-08T16:50:13.043Z,1.72
2022-12-08T16:52:42.749Z,1.85
2022-12-08T16:55:14.356Z,1.79
2022-12-08T19:07:59.205Z,0.52
2022-12-08T19:10:27.878Z,0.79
2022-12-08T19:12:56.081Z,0.95
2022-12-08T19:15:28.894Z,0.57
2022-12-08T19:18:01.178Z,0.76
2022-12-08T19:20:29.963Z,0.75
2022-12-08T19:22:59.390Z,0.59
2022-12-08T19:25:33.032Z,0.66
2022-12-08T19:28:01.432Z,0.74
2022-12-08T19:30:30.184Z,0.49
2022-12-08T19:32:58.347Z,0.77
2022-12-08T19:35:26.658Z,0.57
2022-12-08T19:37:55.061Z,0.64
2022-12-08T19:40:38.491Z,0.56
2022-12-08T19:43:23.867Z,0.45
2022-12-08T19:45:51.908Z,0.38
2022-12-08T19:48:19.384Z,0.34
2022-12-08T19:50:46.892Z,0.26
2022-12-08T19:53:18.770Z,0.12
2022-12-08T19:55:48.819Z,0.16
2022-12-08T19:58:17.055Z,0.07
2022-12-08T20:00:45.326Z,0.11
2022-12-08T20:03:16.231Z,0.00
2022-12-08T20:05:45.487Z,-0.03
2022-12-08T20:08:15.698Z,-0.12
2022-12-08T20:10:55.960Z,-0.16
2022-12-08T20:13:37.968Z,-0.14
2022-12-08T20:16:05.464Z,-0.18
2022-12-08T20:18:34.671Z,-0.19
2022-12-08T20:21:02.848Z,-0.23
2022-12-08T20:23:31.169Z,-0.15
2022-12-08T20:26:00.684Z,-0.13
2022-12-08T20:28:28.679Z,-0.17
2022-12-08T20:30:56.816Z,-0.13
2022-12-08T20:33:25.158Z,-0.10
2022-12-08T20:36:00.198Z,-0.17
2022-12-08T20:38:28.413Z,0.17
2022-12-08T20:40:57.842Z,0.11
2022-12-08T20:43:28.043Z,-0.21
2022-12-08T20:45:56.101Z,-0.09
2022-12-08T20:48:25.099Z,-0.07
2022-12-08T20:50:53.439Z,-0.03
2022-12-08T20:53:21.586Z,-0.04
2022-12-08T20:55:49.730Z,-0.19
2022-12-08T20:58:17.846Z,-0.15
2022-12-08T21:00:50.349Z,-0.21
2022-12-08T21:03:18.913Z,-0.25
2022-12-08T21:05:50.385Z,-0.24
2022-12-08T21:08:19.555Z,-0.21
2022-12-08T21:10:54.532Z,-0.18
2022-12-08T21:13:22.720Z,-0.16
2022-12-08T21:15:52.226Z,-0.17
2022-12-08T21:18:20.899Z,-0.18
2022-12-08T21:20:49.320Z,-0.24
2022-12-08T21:23:18.279Z,-0.18
2022-12-08T21:25:48.217Z,-0.16
2022-12-08T21:28:16.643Z,-0.16
2022-12-08T21:30:45.086Z,-0.18
2022-12-08T21:33:14.997Z,-0.25
2022-12-08T21:35:43.222Z,-0.20
2022-12-08T21:38:11.761Z,-0.20
2022-12-08T21:40:39.979Z,-0.25
2022-12-08T21:43:08.401Z,-0.20
2022-12-08T21:45:36.550Z,-0.23
2022-12-08T21:48:10.735Z,-0.38
2022-12-08T21:50:41.419Z,-0.29
2022-12-08T21:53:09.791Z,-0.38
2022-12-08T21:55:38.035Z,-0.36
2022-12-08T21:58:06.309Z,-0.40
2022-12-08T22:00:34.957Z,-0.46
2022-12-08T22:03:03.555Z,-0.42
2022-12-08T22:05:32.228Z,-0.41
2022-12-08T22:08:02.236Z,-0.48
2022-12-08T22:10:30.605Z,-0.53
2022-12-08T22:12:59.232Z,-0.56
2022-12-08T22:15:29.961Z,-0.71
2022-12-08T22:18:02.643Z,-0.73
2022-12-08T22:20:33.979Z,-0.67
2022-12-08T22:23:04.955Z,-0.64
2022-12-08T22:25:33.022Z,-0.58
2022-12-08T22:28:01.203Z,-0.62
2022-12-08T22:30:32.875Z,-0.67
2022-12-08T22:33:06.273Z,-0.83
2022-12-08T22:35:34.547Z,-0.71
2022-12-08T22:38:04.040Z,-0.73
2022-12-08T22:40:32.222Z,-0.73
2022-12-08T22:43:00.768Z,-0.70
2022-12-08T22:45:31.239Z,-0.62
2022-12-08T22:47:59.415Z,-0.69
2022-12-08T22:50:27.508Z,-0.57
2022-12-08T22:52:55.753Z,-0.58
2022-12-08T22:55:25.467Z,-0.88
2022-12-08T22:57:54.239Z,-0.69
2022-12-08T23:00:22.401Z,-0.74
2022-12-08T23:02:50.810Z,-0.75
2022-12-08T23:05:19.222Z,-0.87
2022-12-08T23:07:47.988Z,-0.75
2022-12-08T23:10:16.268Z,-0.69
2022-12-08T23:12:45.867Z,-0.68
2022-12-08T23:15:14.352Z,-0.74
2022-12-08T23:17:42.883Z,-0.73
2022-12-08T23:20:11.903Z,-0.78
2022-12-08T23:22:40.262Z,-0.68
2022-12-08T23:25:09.520Z,-0.61
2022-12-08T23:27:38.668Z,-0.74
2022-12-08T23:30:09.987Z,-0.68
2022-12-08T23:32:38.712Z,-0.77
2022-12-08T23:35:08.508Z,-0.85
2022-12-08T23:37:37.430Z,-0.87
2022-12-08T23:40:07.847Z,-0.98
2022-12-08T23:42:37.685Z,-0.87
2022-12-08T23:45:08.429Z,-0.80
2022-12-08T23:47:38.167Z,-0.81
2022-12-08T23:50:07.969Z,-0.80
2022-12-08T23:52:39.317Z,-0.79
2022-12-08T23:55:09.451Z,-0.78
2022-12-08T23:57:38.625Z,-0.92
